sensor_id;sensor_type;location;lat;lon;timestamp;temperature;humidity
37658;DHT22;23500;53.268;8.308;2023-12-14T00:02:06;17.00;63.20
37658;DHT22;23500;53.268;8.308;2023-12-14T00:04:32;17.00;63.30
37658;DHT22;23500;53.268;8.308;2023-12-14T00:06:57;16.90;63.50
37658;DHT22;23500;53.268;8.308;2023-12-14T00:09:23;16.90;63.60
37658;DHT22;23500;53.268;8.308;2023-12-14T00:11:49;16.90;64.30
37658;DHT22;23500;53.268;8.308;2023-12-14T00:14:14;16.90;63.70
37658;DHT22;23500;53.268;8.308;2023-12-14T00:16:40;16.90;63.70
37658;DHT22;23500;53.268;8.308;2023-12-14T00:19:06;16.90;63.80
37658;DHT22;23500;53.268;8.308;2023-12-14T00:21:31;16.80;63.80
37658;DHT22;23500;53.268;8.308;2023-12-14T00:23:57;16.80;63.80
37658;DHT22;23500;53.268;8.308;2023-12-14T00:26:23;16.80;63.90
37658;DHT22;23500;53.268;8.308;2023-12-14T00:28:48;16.80;64.00
37658;DHT22;23500;53.268;8.308;2023-12-14T00:31:14;16.80;64.10
37658;DHT22;23500;53.268;8.308;2023-12-14T00:33:40;16.80;64.20
37658;DHT22;23500;53.268;8.308;2023-12-14T00:36:06;16.80;64.20
37658;DHT22;23500;53.268;8.308;2023-12-14T00:38:31;16.70;64.40
37658;DHT22;23500;53.268;8.308;2023-12-14T00:40:57;16.70;64.40
37658;DHT22;23500;53.268;8.308;2023-12-14T00:43:23;16.70;64.40
37658;DHT22;23500;53.268;8.308;2023-12-14T00:45:48;16.70;64.50
37658;DHT22;23500;53.268;8.308;2023-12-14T00:48:14;16.70;65.20
37658;DHT22;23500;53.268;8.308;2023-12-14T00:50:40;16.70;64.50
37658;DHT22;23500;53.268;8.308;2023-12-14T00:53:05;16.70;64.60
37658;DHT22;23500;53.268;8.308;2023-12-14T00:55:31;16.60;64.70
37658;DHT22;23500;53.268;8.308;2023-12-14T00:57:57;16.70;64.80
37658;DHT22;23500;53.268;8.308;2023-12-14T01:00:23;16.60;64.80
37658;DHT22;23500;53.268;8.308;2023-12-14T01:02:48;16.60;64.80
37658;DHT22;23500;53.268;8.308;2023-12-14T01:05:14;16.60;64.80
37658;DHT22;23500;53.268;8.308;2023-12-14T01:07:40;16.60;64.90
37658;DHT22;23500;53.268;8.308;2023-12-14T01:10:06;16.60;65.00
37658;DHT22;23500;53.268;8.308;2023-12-14T01:12:32;16.60;65.00
37658;DHT22;23500;53.268;8.308;2023-12-14T01:14:57;16.50;65.00
37658;DHT22;23500;53.268;8.308;2023-12-14T01:17:23;16.60;65.20
37658;DHT22;23500;53.268;8.308;2023-12-14T01:19:49;16.60;65.20
37658;DHT22;23500;53.268;8.308;2023-12-14T01:22:14;16.50;65.30
37658;DHT22;23500;53.268;8.308;2023-12-14T01:24:40;16.50;65.30
37658;DHT22;23500;53.268;8.308;2023-12-14T01:27:06;16.50;65.30
37658;DHT22;23500;53.268;8.308;2023-12-14T01:29:31;16.50;65.50
37658;DHT22;23500;53.268;8.308;2023-12-14T01:31:57;16.50;65.40
37658;DHT22;23500;53.268;8.308;2023-12-14T01:34:23;16.50;65.60
37658;DHT22;23500;53.268;8.308;2023-12-14T01:36:48;16.40;65.50
37658;DHT22;23500;53.268;8.308;2023-12-14T01:39:14;16.40;65.50
37658;DHT22;23500;53.268;8.308;2023-12-14T01:41:40;16.40;65.60
37658;DHT22;23500;53.268;8.308;2023-12-14T01:44:05;16.40;65.70
37658;DHT22;23500;53.268;8.308;2023-12-14T01:46:31;16.40;65.70
37658;DHT22;23500;53.268;8.308;2023-12-14T01:48:57;16.40;65.70
37658;DHT22;23500;53.268;8.308;2023-12-14T01:51:22;16.40;65.90
37658;DHT22;23500;53.268;8.308;2023-12-14T01:53:48;16.40;65.80
37658;DHT22;23500;53.268;8.308;2023-12-14T01:56:14;16.30;65.80
37658;DHT22;23500;53.268;8.308;2023-12-14T01:58:40;16.40;65.90
37658;DHT22;23500;53.268;8.308;2023-12-14T02:01:19;16.30;66.00
37658;DHT22;23500;53.268;8.308;2023-12-14T02:03:47;16.30;66.00
37658;DHT22;23500;53.268;8.308;2023-12-14T02:06:15;16.30;66.00
37658;DHT22;23500;53.268;8.308;2023-12-14T02:08:41;16.30;66.10
37658;DHT22;23500;53.268;8.308;2023-12-14T02:11:07;16.30;66.20
37658;DHT22;23500;53.268;8.308;2023-12-14T02:13:33;16.30;66.20
37658;DHT22;23500;53.268;8.308;2023-12-14T02:15:58;16.30;66.30
37658;DHT22;23500;53.268;8.308;2023-12-14T02:18:24;16.20;66.30
37658;DHT22;23500;53.268;8.308;2023-12-14T02:20:50;16.20;66.30
37658;DHT22;23500;53.268;8.308;2023-12-14T02:23:15;16.20;66.40
37658;DHT22;23500;53.268;8.308;2023-12-14T02:25:41;16.20;66.40
37658;DHT22;23500;53.268;8.308;2023-12-14T02:28:07;16.20;66.50
37658;DHT22;23500;53.268;8.308;2023-12-14T02:30:33;16.20;66.50
37658;DHT22;23500;53.268;8.308;2023-12-14T02:32:58;16.20;66.60
37658;DHT22;23500;53.268;8.308;2023-12-14T02:35:24;16.20;66.60
37658;DHT22;23500;53.268;8.308;2023-12-14T02:37:50;16.20;66.60
37658;DHT22;23500;53.268;8.308;2023-12-14T02:40:16;16.20;66.60
37658;DHT22;23500;53.268;8.308;2023-12-14T02:42:41;16.20;66.80
37658;DHT22;23500;53.268;8.308;2023-12-14T02:45:08;16.20;66.70
37658;DHT22;23500;53.268;8.308;2023-12-14T02:47:34;16.20;66.80
37658;DHT22;23500;53.268;8.308;2023-12-14T02:50:00;16.10;66.80
37658;DHT22;23500;53.268;8.308;2023-12-14T02:52:25;16.10;66.80
37658;DHT22;23500;53.268;8.308;2023-12-14T02:54:51;16.10;66.80
37658;DHT22;23500;53.268;8.308;2023-12-14T02:57:17;16.10;66.90
37658;DHT22;23500;53.268;8.308;2023-12-14T02:59:42;16.10;66.90
37658;DHT22;23500;53.268;8.308;2023-12-14T03:02:08;16.10;66.90
37658;DHT22;23500;53.268;8.308;2023-12-14T03:04:37;16.10;66.90
37658;DHT22;23500;53.268;8.308;2023-12-14T03:07:03;16.10;67.00
37658;DHT22;23500;53.268;8.308;2023-12-14T03:09:29;16.10;67.00
37658;DHT22;23500;53.268;8.308;2023-12-14T03:11:55;16.10;67.10
37658;DHT22;23500;53.268;8.308;2023-12-14T03:14:21;16.10;67.10
37658;DHT22;23500;53.268;8.308;2023-12-14T03:16:46;16.10;67.20
37658;DHT22;23500;53.268;8.308;2023-12-14T03:19:17;16.00;67.10
37658;DHT22;23500;53.268;8.308;2023-12-14T03:21:43;16.00;67.10
37658;DHT22;23500;53.268;8.308;2023-12-14T03:24:08;16.00;67.10
37658;DHT22;23500;53.268;8.308;2023-12-14T03:26:37;16.00;67.10
37658;DHT22;23500;53.268;8.308;2023-12-14T03:29:02;16.00;67.20
37658;DHT22;23500;53.268;8.308;2023-12-14T03:31:28;16.00;67.10
37658;DHT22;23500;53.268;8.308;2023-12-14T03:33:54;16.00;67.20
37658;DHT22;23500;53.268;8.308;2023-12-14T03:36:19;16.00;67.20
37658;DHT22;23500;53.268;8.308;2023-12-14T03:38:45;16.00;67.30
37658;DHT22;23500;53.268;8.308;2023-12-14T03:41:11;16.00;67.30
37658;DHT22;23500;53.268;8.308;2023-12-14T03:43:36;16.00;67.40
37658;DHT22;23500;53.268;8.308;2023-12-14T03:46:02;16.00;67.40
37658;DHT22;23500;53.268;8.308;2023-12-14T03:48:28;15.90;67.30
37658;DHT22;23500;53.268;8.308;2023-12-14T03:50:54;15.90;67.30
37658;DHT22;23500;53.268;8.308;2023-12-14T03:53:19;15.90;67.40
37658;DHT22;23500;53.268;8.308;2023-12-14T03:55:46;15.90;67.40
37658;DHT22;23500;53.268;8.308;2023-12-14T03:58:11;15.90;67.40
37658;DHT22;23500;53.268;8.308;2023-12-14T04:00:37;15.90;67.40
37658;DHT22;23500;53.268;8.308;2023-12-14T04:03:03;15.90;67.50
37658;DHT22;23500;53.268;8.308;2023-12-14T04:05:28;15.90;67.60
37658;DHT22;23500;53.268;8.308;2023-12-14T04:07:54;15.90;67.60
37658;DHT22;23500;53.268;8.308;2023-12-14T04:10:20;15.90;67.60
37658;DHT22;23500;53.268;8.308;2023-12-14T04:12:46;15.90;67.60
37658;DHT22;23500;53.268;8.308;2023-12-14T04:15:11;15.90;67.70
37658;DHT22;23500;53.268;8.308;2023-12-14T04:17:37;15.90;67.70
37658;DHT22;23500;53.268;8.308;2023-12-14T04:20:03;15.90;67.80
37658;DHT22;23500;53.268;8.308;2023-12-14T04:22:31;15.80;67.70
37658;DHT22;23500;53.268;8.308;2023-12-14T04:24:57;15.80;67.70
37658;DHT22;23500;53.268;8.308;2023-12-14T04:27:22;15.80;67.80
37658;DHT22;23500;53.268;8.308;2023-12-14T04:29:52;15.80;67.80
37658;DHT22;23500;53.268;8.308;2023-12-14T04:32:18;15.80;67.80
37658;DHT22;23500;53.268;8.308;2023-12-14T04:34:43;15.80;67.90
37658;DHT22;23500;53.268;8.308;2023-12-14T04:37:09;15.80;67.70
37658;DHT22;23500;53.268;8.308;2023-12-14T04:39:35;15.90;67.60
37658;DHT22;23500;53.268;8.308;2023-12-14T04:42:01;15.90;67.70
37658;DHT22;23500;53.268;8.308;2023-12-14T04:44:26;16.00;67.50
37658;DHT22;23500;53.268;8.308;2023-12-14T04:46:52;16.10;67.30
37658;DHT22;23500;53.268;8.308;2023-12-14T04:49:19;16.20;67.70
37658;DHT22;23500;53.268;8.308;2023-12-14T04:51:45;16.40;66.70
37658;DHT22;23500;53.268;8.308;2023-12-14T04:54:10;16.50;66.20
37658;DHT22;23500;53.268;8.308;2023-12-14T04:56:36;16.70;65.90
37658;DHT22;23500;53.268;8.308;2023-12-14T04:59:02;16.80;65.40
37658;DHT22;23500;53.268;8.308;2023-12-14T05:01:28;17.00;65.00
37658;DHT22;23500;53.268;8.308;2023-12-14T05:03:53;17.10;64.60
37658;DHT22;23500;53.268;8.308;2023-12-14T05:06:20;17.20;64.20
37658;DHT22;23500;53.268;8.308;2023-12-14T05:08:46;17.50;64.00
37658;DHT22;23500;53.268;8.308;2023-12-14T05:11:13;18.60;61.60
37658;DHT22;23500;53.268;8.308;2023-12-14T05:13:39;20.80;56.60
37658;DHT22;23500;53.268;8.308;2023-12-14T05:16:05;21.90;53.30
37658;DHT22;23500;53.268;8.308;2023-12-14T05:18:31;22.20;52.00
37658;DHT22;23500;53.268;8.308;2023-12-14T05:20:56;22.40;51.40
37658;DHT22;23500;53.268;8.308;2023-12-14T05:23:22;22.40;51.10
37658;DHT22;23500;53.268;8.308;2023-12-14T05:25:49;22.30;51.00
37658;DHT22;23500;53.268;8.308;2023-12-14T05:28:15;22.40;51.20
37658;DHT22;23500;53.268;8.308;2023-12-14T05:30:41;22.70;50.60
37658;DHT22;23500;53.268;8.308;2023-12-14T05:33:07;23.30;49.50
37658;DHT22;23500;53.268;8.308;2023-12-14T05:35:32;23.60;48.60
37658;DHT22;23500;53.268;8.308;2023-12-14T05:37:58;23.50;48.50
37658;DHT22;23500;53.268;8.308;2023-12-14T05:40:24;23.30;48.70
37658;DHT22;23500;53.268;8.308;2023-12-14T05:42:50;23.10;49.10
37658;DHT22;23500;53.268;8.308;2023-12-14T05:45:15;22.90;49.60
37658;DHT22;23500;53.268;8.308;2023-12-14T05:47:41;22.80;49.80
37658;DHT22;23500;53.268;8.308;2023-12-14T05:50:07;22.70;49.90
37658;DHT22;23500;53.268;8.308;2023-12-14T05:52:35;22.50;50.10
37658;DHT22;23500;53.268;8.308;2023-12-14T05:55:01;22.40;50.40
37658;DHT22;23500;53.268;8.308;2023-12-14T05:57:27;22.30;50.60
37658;DHT22;23500;53.268;8.308;2023-12-14T05:59:53;22.20;50.90
37658;DHT22;23500;53.268;8.308;2023-12-14T06:02:18;22.00;51.20
37658;DHT22;23500;53.268;8.308;2023-12-14T06:04:44;21.80;51.60
37658;DHT22;23500;53.268;8.308;2023-12-14T06:07:10;21.70;51.90
37658;DHT22;23500;53.268;8.308;2023-12-14T06:09:36;21.50;52.90
37658;DHT22;23500;53.268;8.308;2023-12-14T06:12:02;21.20;52.80
37658;DHT22;23500;53.268;8.308;2023-12-14T06:14:28;21.10;53.20
37658;DHT22;23500;53.268;8.308;2023-12-14T06:16:54;20.90;53.60
37658;DHT22;23500;53.268;8.308;2023-12-14T06:19:20;20.70;54.00
37658;DHT22;23500;53.268;8.308;2023-12-14T06:21:46;20.80;54.50
37658;DHT22;23500;53.268;8.308;2023-12-14T06:24:12;21.00;53.70
37658;DHT22;23500;53.268;8.308;2023-12-14T06:26:41;20.90;53.90
37658;DHT22;23500;53.268;8.308;2023-12-14T06:29:08;20.90;53.90
37658;DHT22;23500;53.268;8.308;2023-12-14T06:31:34;21.20;53.60
37658;DHT22;23500;53.268;8.308;2023-12-14T06:34:00;21.60;52.70
37658;DHT22;23500;53.268;8.308;2023-12-14T06:36:28;22.00;51.80
37658;DHT22;23500;53.268;8.308;2023-12-14T06:38:55;22.20;51.30
37658;DHT22;23500;53.268;8.308;2023-12-14T06:41:21;22.10;51.40
37658;DHT22;23500;53.268;8.308;2023-12-14T06:43:48;22.00;51.60
37658;DHT22;23500;53.268;8.308;2023-12-14T06:46:14;22.10;51.70
37658;DHT22;23500;53.268;8.308;2023-12-14T06:48:40;22.30;51.30
37658;DHT22;23500;53.268;8.308;2023-12-14T06:51:06;22.50;50.60
37658;DHT22;23500;53.268;8.308;2023-12-14T06:53:32;22.50;50.50
37658;DHT22;23500;53.268;8.308;2023-12-14T06:55:57;22.40;50.70
37658;DHT22;23500;53.268;8.308;2023-12-14T06:58:23;22.30;51.00
37658;DHT22;23500;53.268;8.308;2023-12-14T07:00:49;22.20;51.20
37658;DHT22;23500;53.268;8.308;2023-12-14T07:03:14;22.20;51.10
37658;DHT22;23500;53.268;8.308;2023-12-14T07:05:40;22.20;51.10
37658;DHT22;23500;53.268;8.308;2023-12-14T07:08:06;22.10;51.20
37658;DHT22;23500;53.268;8.308;2023-12-14T07:10:31;22.00;51.50
37658;DHT22;23500;53.268;8.308;2023-12-14T07:12:57;21.90;51.60
37658;DHT22;23500;53.268;8.308;2023-12-14T07:15:24;21.70;51.80
37658;DHT22;23500;53.268;8.308;2023-12-14T07:17:50;21.60;52.20
37658;DHT22;23500;53.268;8.308;2023-12-14T07:20:16;21.40;52.50
37658;DHT22;23500;53.268;8.308;2023-12-14T07:22:41;21.20;53.00
37658;DHT22;23500;53.268;8.308;2023-12-14T07:25:07;20.90;53.70
37658;DHT22;23500;53.268;8.308;2023-12-14T07:27:33;20.40;54.50
37658;DHT22;23500;53.268;8.308;2023-12-14T07:29:59;20.10;55.30
37658;DHT22;23500;53.268;8.308;2023-12-14T07:32:25;19.80;56.10
37658;DHT22;23500;53.268;8.308;2023-12-14T07:34:51;19.50;56.70
37658;DHT22;23500;53.268;8.308;2023-12-14T07:37:16;19.30;57.20
37658;DHT22;23500;53.268;8.308;2023-12-14T07:39:42;19.10;57.60
37658;DHT22;23500;53.268;8.308;2023-12-14T07:42:08;18.90;58.00
37658;DHT22;23500;53.268;8.308;2023-12-14T07:44:34;18.80;58.30
37658;DHT22;23500;53.268;8.308;2023-12-14T07:47:01;18.70;58.50
37658;DHT22;23500;53.268;8.308;2023-12-14T07:49:27;18.60;58.70
37658;DHT22;23500;53.268;8.308;2023-12-14T07:51:53;18.50;58.90
37658;DHT22;23500;53.268;8.308;2023-12-14T07:54:19;18.50;58.70
37658;DHT22;23500;53.268;8.308;2023-12-14T07:56:44;18.40;58.90
37658;DHT22;23500;53.268;8.308;2023-12-14T07:59:11;18.30;59.10
37658;DHT22;23500;53.268;8.308;2023-12-14T08:01:37;18.20;59.30
37658;DHT22;23500;53.268;8.308;2023-12-14T08:04:03;18.10;59.50
37658;DHT22;23500;53.268;8.308;2023-12-14T08:06:29;18.10;59.70
37658;DHT22;23500;53.268;8.308;2023-12-14T08:08:58;18.10;60.10
37658;DHT22;23500;53.268;8.308;2023-12-14T08:11:24;18.00;60.30
37658;DHT22;23500;53.268;8.308;2023-12-14T08:13:50;18.10;60.90
37658;DHT22;23500;53.268;8.308;2023-12-14T08:16:15;19.70;59.20
37658;DHT22;23500;53.268;8.308;2023-12-14T08:18:43;21.20;54.80
37658;DHT22;23500;53.268;8.308;2023-12-14T08:21:11;22.20;52.20
37658;DHT22;23500;53.268;8.308;2023-12-14T08:23:37;22.80;50.60
37658;DHT22;23500;53.268;8.308;2023-12-14T08:26:03;23.30;49.50
37658;DHT22;23500;53.268;8.308;2023-12-14T08:28:28;23.60;48.60
37658;DHT22;23500;53.268;8.308;2023-12-14T08:30:55;23.90;47.80
37658;DHT22;23500;53.268;8.308;2023-12-14T08:33:23;24.40;47.10
37658;DHT22;23500;53.268;8.308;2023-12-14T08:35:49;24.50;46.60
37658;DHT22;23500;53.268;8.308;2023-12-14T08:38:16;24.30;46.70
37658;DHT22;23500;53.268;8.308;2023-12-14T08:40:42;24.10;47.10
37658;DHT22;23500;53.268;8.308;2023-12-14T08:43:08;23.80;47.60
37658;DHT22;23500;53.268;8.308;2023-12-14T08:45:33;23.60;47.90
37658;DHT22;23500;53.268;8.308;2023-12-14T08:47:59;23.40;48.30
37658;DHT22;23500;53.268;8.308;2023-12-14T08:50:25;23.20;48.60
37658;DHT22;23500;53.268;8.308;2023-12-14T08:52:54;23.10;49.10
37658;DHT22;23500;53.268;8.308;2023-12-14T08:55:19;22.80;49.40
37658;DHT22;23500;53.268;8.308;2023-12-14T08:57:45;22.60;49.80
37658;DHT22;23500;53.268;8.308;2023-12-14T09:00:11;22.50;50.20
37658;DHT22;23500;53.268;8.308;2023-12-14T09:02:37;22.30;50.50
37658;DHT22;23500;53.268;8.308;2023-12-14T09:05:03;22.10;50.90
37658;DHT22;23500;53.268;8.308;2023-12-14T09:07:30;21.90;51.30
37658;DHT22;23500;53.268;8.308;2023-12-14T09:09:56;21.80;51.70
37658;DHT22;23500;53.268;8.308;2023-12-14T09:12:22;21.60;52.00
37658;DHT22;23500;53.268;8.308;2023-12-14T09:14:48;21.30;52.40
37658;DHT22;23500;53.268;8.308;2023-12-14T09:17:13;21.10;53.20
37658;DHT22;23500;53.268;8.308;2023-12-14T09:19:39;20.90;53.60
37658;DHT22;23500;53.268;8.308;2023-12-14T09:22:05;20.60;54.10
37658;DHT22;23500;53.268;8.308;2023-12-14T09:24:31;20.60;54.30
37658;DHT22;23500;53.268;8.308;2023-12-14T09:26:56;20.70;54.40
37658;DHT22;23500;53.268;8.308;2023-12-14T09:29:22;21.00;53.80
37658;DHT22;23500;53.268;8.308;2023-12-14T09:31:48;21.20;53.40
37658;DHT22;23500;53.268;8.308;2023-12-14T09:34:13;21.30;53.10
37658;DHT22;23500;53.268;8.308;2023-12-14T09:36:40;21.40;53.00
37658;DHT22;23500;53.268;8.308;2023-12-14T09:39:05;21.60;52.60
37658;DHT22;23500;53.268;8.308;2023-12-14T09:41:36;21.80;52.10
37658;DHT22;23500;53.268;8.308;2023-12-14T09:44:04;22.30;51.40
37658;DHT22;23500;53.268;8.308;2023-12-14T09:46:30;22.60;50.50
37658;DHT22;23500;53.268;8.308;2023-12-14T09:48:57;22.70;50.10
37658;DHT22;23500;53.268;8.308;2023-12-14T09:51:25;22.60;50.30
37658;DHT22;23500;53.268;8.308;2023-12-14T09:53:52;22.50;50.50
37658;DHT22;23500;53.268;8.308;2023-12-14T09:56:24;22.40;50.60
37658;DHT22;23500;53.268;8.308;2023-12-14T09:58:50;22.50;50.50
37658;DHT22;23500;53.268;8.308;2023-12-14T10:01:26;22.60;50.40
37658;DHT22;23500;53.268;8.308;2023-12-14T10:04:11;22.50;50.40
37658;DHT22;23500;53.268;8.308;2023-12-14T10:06:38;22.30;50.70
37658;DHT22;23500;53.268;8.308;2023-12-14T10:09:04;22.20;50.90
37658;DHT22;23500;53.268;8.308;2023-12-14T10:12:05;22.20;51.10
37658;DHT22;23500;53.268;8.308;2023-12-14T10:14:32;22.20;51.10
37658;DHT22;23500;53.268;8.308;2023-12-14T10:16:58;22.10;51.30
37658;DHT22;23500;53.268;8.308;2023-12-14T10:19:24;22.00;51.40
37658;DHT22;23500;53.268;8.308;2023-12-14T10:21:50;21.90;51.70
37658;DHT22;23500;53.268;8.308;2023-12-14T10:24:17;21.70;51.80
37658;DHT22;23500;53.268;8.308;2023-12-14T10:26:46;21.70;52.00
37658;DHT22;23500;53.268;8.308;2023-12-14T10:29:12;21.60;52.20
37658;DHT22;23500;53.268;8.308;2023-12-14T10:31:39;21.50;52.30
37658;DHT22;23500;53.268;8.308;2023-12-14T10:34:04;21.60;52.30
37658;DHT22;23500;53.268;8.308;2023-12-14T10:36:31;21.60;52.20
37658;DHT22;23500;53.268;8.308;2023-12-14T10:38:59;21.60;52.30
37658;DHT22;23500;53.268;8.308;2023-12-14T10:41:25;21.60;52.30
37658;DHT22;23500;53.268;8.308;2023-12-14T10:43:54;21.60;52.30
37658;DHT22;23500;53.268;8.308;2023-12-14T10:46:20;21.50;52.40
37658;DHT22;23500;53.268;8.308;2023-12-14T10:48:52;21.60;52.30
37658;DHT22;23500;53.268;8.308;2023-12-14T10:51:20;21.90;51.90
37658;DHT22;23500;53.268;8.308;2023-12-14T10:53:46;22.10;51.40
37658;DHT22;23500;53.268;8.308;2023-12-14T10:56:14;22.20;51.20
37658;DHT22;23500;53.268;8.308;2023-12-14T10:58:46;22.10;51.30
37658;DHT22;23500;53.268;8.308;2023-12-14T11:01:17;22.10;51.20
37658;DHT22;23500;53.268;8.308;2023-12-14T11:03:44;22.20;51.10
37658;DHT22;23500;53.268;8.308;2023-12-14T11:08:53;22.10;51.20
37658;DHT22;23500;53.268;8.308;2023-12-14T11:11:20;22.10;51.10
37658;DHT22;23500;53.268;8.308;2023-12-14T11:13:53;22.20;51.00
37658;DHT22;23500;53.268;8.308;2023-12-14T11:16:26;22.40;50.70
37658;DHT22;23500;53.268;8.308;2023-12-14T11:24:21;22.20;51.10
37658;DHT22;23500;53.268;8.308;2023-12-14T11:26:49;22.10;51.20
37658;DHT22;23500;53.268;8.308;2023-12-14T11:29:16;22.00;51.50
37658;DHT22;23500;53.268;8.308;2023-12-14T11:31:42;21.90;51.60
37658;DHT22;23500;53.268;8.308;2023-12-14T11:34:08;22.00;51.50
37658;DHT22;23500;53.268;8.308;2023-12-14T11:36:33;22.00;51.50
37658;DHT22;23500;53.268;8.308;2023-12-14T11:38:59;22.10;51.40
37658;DHT22;23500;53.268;8.308;2023-12-14T11:41:25;22.10;51.30
37658;DHT22;23500;53.268;8.308;2023-12-14T11:43:51;22.00;51.50
37658;DHT22;23500;53.268;8.308;2023-12-14T11:46:18;21.90;51.70
37658;DHT22;23500;53.268;8.308;2023-12-14T11:48:44;21.90;51.70
37658;DHT22;23500;53.268;8.308;2023-12-14T11:51:11;21.80;51.70
37658;DHT22;23500;53.268;8.308;2023-12-14T11:53:37;21.70;51.80
37658;DHT22;23500;53.268;8.308;2023-12-14T11:56:08;21.60;52.00
37658;DHT22;23500;53.268;8.308;2023-12-14T11:58:34;21.50;52.30
37658;DHT22;23500;53.268;8.308;2023-12-14T12:01:19;21.40;52.70
37658;DHT22;23500;53.268;8.308;2023-12-14T12:03:46;21.40;52.70
37658;DHT22;23500;53.268;8.308;2023-12-14T12:06:26;21.60;52.30
37658;DHT22;23500;53.268;8.308;2023-12-14T12:08:56;21.90;51.80
37658;DHT22;23500;53.268;8.308;2023-12-14T12:11:23;22.10;51.30
37658;DHT22;23500;53.268;8.308;2023-12-14T12:13:55;22.00;51.40
37658;DHT22;23500;53.268;8.308;2023-12-14T12:16:21;22.00;51.60
37658;DHT22;23500;53.268;8.308;2023-12-14T12:18:47;22.10;51.50
37658;DHT22;23500;53.268;8.308;2023-12-14T12:21:13;22.40;50.80
37658;DHT22;23500;53.268;8.308;2023-12-14T12:23:39;22.50;50.50
37658;DHT22;23500;53.268;8.308;2023-12-14T12:26:07;22.40;51.20
37658;DHT22;23500;53.268;8.308;2023-12-14T12:28:33;22.30;50.70
37658;DHT22;23500;53.268;8.308;2023-12-14T12:30:59;22.40;50.70
37658;DHT22;23500;53.268;8.308;2023-12-14T12:33:25;22.50;50.50
37658;DHT22;23500;53.268;8.308;2023-12-14T12:35:51;22.60;50.30
37658;DHT22;23500;53.268;8.308;2023-12-14T12:38:17;22.60;50.10
37658;DHT22;23500;53.268;8.308;2023-12-14T12:40:44;22.50;50.20
37658;DHT22;23500;53.268;8.308;2023-12-14T12:43:10;22.40;50.50
37658;DHT22;23500;53.268;8.308;2023-12-14T12:45:36;22.30;50.60
37658;DHT22;23500;53.268;8.308;2023-12-14T12:48:03;22.20;50.80
37658;DHT22;23500;53.268;8.308;2023-12-14T12:50:29;22.10;51.10
37658;DHT22;23500;53.268;8.308;2023-12-14T12:52:55;22.00;51.90
37658;DHT22;23500;53.268;8.308;2023-12-14T12:55:21;21.90;51.50
37658;DHT22;23500;53.268;8.308;2023-12-14T12:57:48;21.90;51.60
37658;DHT22;23500;53.268;8.308;2023-12-14T13:00:14;21.80;51.80
37658;DHT22;23500;53.268;8.308;2023-12-14T13:02:41;21.70;52.00
37658;DHT22;23500;53.268;8.308;2023-12-14T13:05:09;21.70;52.00
37658;DHT22;23500;53.268;8.308;2023-12-14T13:07:36;21.70;52.10
37658;DHT22;23500;53.268;8.308;2023-12-14T13:10:05;21.70;52.00
37658;DHT22;23500;53.268;8.308;2023-12-14T13:12:32;21.70;52.00
37658;DHT22;23500;53.268;8.308;2023-12-14T13:14:58;21.70;52.10
37658;DHT22;23500;53.268;8.308;2023-12-14T13:17:24;21.60;52.20
37658;DHT22;23500;53.268;8.308;2023-12-14T13:19:50;21.70;52.30
37658;DHT22;23500;53.268;8.308;2023-12-14T13:22:15;21.90;52.00
37658;DHT22;23500;53.268;8.308;2023-12-14T13:24:41;22.10;51.50
37658;DHT22;23500;53.268;8.308;2023-12-14T13:27:07;22.20;51.20
37658;DHT22;23500;53.268;8.308;2023-12-14T13:29:32;22.10;51.20
37658;DHT22;23500;53.268;8.308;2023-12-14T13:32:00;22.20;51.30
37658;DHT22;23500;53.268;8.308;2023-12-14T13:34:26;22.20;51.20
37658;DHT22;23500;53.268;8.308;2023-12-14T13:36:53;22.10;51.40
37658;DHT22;23500;53.268;8.308;2023-12-14T13:39:19;22.00;51.60
37658;DHT22;23500;53.268;8.308;2023-12-14T13:41:45;22.00;51.60
37658;DHT22;23500;53.268;8.308;2023-12-14T13:44:11;22.10;51.30
37658;DHT22;23500;53.268;8.308;2023-12-14T13:46:36;22.30;51.60
37658;DHT22;23500;53.268;8.308;2023-12-14T13:49:02;22.20;51.00
37658;DHT22;23500;53.268;8.308;2023-12-14T13:51:28;22.20;51.20
37658;DHT22;23500;53.268;8.308;2023-12-14T13:53:54;22.10;51.30
37658;DHT22;23500;53.268;8.308;2023-12-14T13:56:20;22.10;51.40
37658;DHT22;23500;53.268;8.308;2023-12-14T13:58:46;22.00;51.50
37658;DHT22;23500;53.268;8.308;2023-12-14T14:01:12;22.00;51.70
37658;DHT22;23500;53.268;8.308;2023-12-14T14:03:40;22.00;51.70
37658;DHT22;23500;53.268;8.308;2023-12-14T14:06:07;22.10;51.40
37658;DHT22;23500;53.268;8.308;2023-12-14T14:08:33;22.20;51.20
37658;DHT22;23500;53.268;8.308;2023-12-14T14:10:59;22.20;51.10
37658;DHT22;23500;53.268;8.308;2023-12-14T14:13:25;22.20;51.10
37658;DHT22;23500;53.268;8.308;2023-12-14T14:15:50;22.10;51.30
37658;DHT22;23500;53.268;8.308;2023-12-14T14:18:16;22.00;51.40
37658;DHT22;23500;53.268;8.308;2023-12-14T14:20:42;22.00;51.60
37658;DHT22;23500;53.268;8.308;2023-12-14T14:23:08;21.90;51.80
37658;DHT22;23500;53.268;8.308;2023-12-14T14:25:34;21.90;51.90
37658;DHT22;23500;53.268;8.308;2023-12-14T14:27:59;21.90;51.90
37658;DHT22;23500;53.268;8.308;2023-12-14T14:30:25;21.90;51.80
37658;DHT22;23500;53.268;8.308;2023-12-14T14:32:51;21.90;51.80
37658;DHT22;23500;53.268;8.308;2023-12-14T14:35:18;21.80;51.90
37658;DHT22;23500;53.268;8.308;2023-12-14T14:37:43;21.70;52.10
37658;DHT22;23500;53.268;8.308;2023-12-14T14:40:12;21.70;52.20
37658;DHT22;23500;53.268;8.308;2023-12-14T14:42:39;21.70;52.10
37658;DHT22;23500;53.268;8.308;2023-12-14T14:45:06;21.50;52.30
37658;DHT22;23500;53.268;8.308;2023-12-14T14:47:33;21.60;52.50
37658;DHT22;23500;53.268;8.308;2023-12-14T14:49:59;21.90;52.00
37658;DHT22;23500;53.268;8.308;2023-12-14T14:52:32;22.00;51.60
37658;DHT22;23500;53.268;8.308;2023-12-14T14:54:58;22.00;51.60
37658;DHT22;23500;53.268;8.308;2023-12-14T14:57:23;22.10;51.40
37658;DHT22;23500;53.268;8.308;2023-12-14T14:59:49;22.20;51.20
37658;DHT22;23500;53.268;8.308;2023-12-14T15:02:15;22.30;51.10
37658;DHT22;23500;53.268;8.308;2023-12-14T15:04:41;22.30;50.90
37658;DHT22;23500;53.268;8.308;2023-12-14T15:07:07;22.20;51.10
37658;DHT22;23500;53.268;8.308;2023-12-14T15:09:32;22.00;51.80
37658;DHT22;23500;53.268;8.308;2023-12-14T15:11:58;21.80;52.00
37658;DHT22;23500;53.268;8.308;2023-12-14T15:14:24;21.50;52.70
37658;DHT22;23500;53.268;8.308;2023-12-14T15:16:49;21.40;53.20
37658;DHT22;23500;53.268;8.308;2023-12-14T15:19:15;21.70;52.80
37658;DHT22;23500;53.268;8.308;2023-12-14T15:21:41;21.80;52.70
37658;DHT22;23500;53.268;8.308;2023-12-14T15:24:07;21.70;52.60
37658;DHT22;23500;53.268;8.308;2023-12-14T15:26:32;21.50;53.10
37658;DHT22;23500;53.268;8.308;2023-12-14T15:28:59;21.50;53.30
37658;DHT22;23500;53.268;8.308;2023-12-14T15:31:25;21.30;53.30
37658;DHT22;23500;53.268;8.308;2023-12-14T15:33:51;20.90;54.20